sensor_id;sensor_type;location;lat;lon;timestamp;pressure;altitude;pressure_sealevel;temperature;humidity
74573;BME280;63071;51.526;-0.134;2022-11-15T00:00:28;100066.63;;;24.60;36.45
74573;BME280;63071;51.526;-0.134;2022-11-15T00:02:53;100060.53;;;24.59;36.22
74573;BME280;63071;51.526;-0.134;2022-11-15T00:05:19;100060.53;;;24.59;35.83
74573;BME280;63071;51.526;-0.134;2022-11-15T00:07:45;100054.00;;;24.61;35.88
74573;BME280;63071;51.526;-0.134;2022-11-15T00:10:10;100045.97;;;24.64;35.64
74573;BME280;63071;51.526;-0.134;2022-11-15T00:12:36;100040.63;;;24.64;35.63
74573;BME280;63071;51.526;-0.134;2022-11-15T00:15:01;100035.25;;;24.68;35.62
74573;BME280;63071;51.526;-0.134;2022-11-15T00:17:27;100034.16;;;24.62;36.09
74573;BME280;63071;51.526;-0.134;2022-11-15T00:19:52;100030.00;;;24.57;35.76
74573;BME280;63071;51.526;-0.134;2022-11-15T00:22:18;100029.97;;;24.61;35.56
74573;BME280;63071;51.526;-0.134;2022-11-15T00:24:43;100028.88;;;24.54;35.24
74573;BME280;63071;51.526;-0.134;2022-11-15T00:27:09;100027.75;;;24.52;35.26
74573;BME280;63071;51.526;-0.134;2022-11-15T00:29:34;100023.53;;;24.54;35.54
74573;BME280;63071;51.526;-0.134;2022-11-15T00:31:59;100018.94;;;24.55;35.15
74573;BME280;63071;51.526;-0.134;2022-11-15T00:34:25;100011.72;;;24.55;35.51
74573;BME280;63071;51.526;-0.134;2022-11-15T00:36:50;100007.50;;;24.54;35.25
74573;BME280;63071;51.526;-0.134;2022-11-15T00:39:16;100005.19;;;24.56;35.22
74573;BME280;63071;51.526;-0.134;2022-11-15T00:41:41;100009.03;;;24.55;35.48
74573;BME280;63071;51.526;-0.134;2022-11-15T00:44:07;100001.41;;;24.54;35.25
74573;BME280;63071;51.526;-0.134;2022-11-15T00:46:32;99988.41;;;24.56;35.94
74573;BME280;63071;51.526;-0.134;2022-11-15T00:48:58;99991.44;;;24.58;35.54
74573;BME280;63071;51.526;-0.134;2022-11-15T00:51:23;99985.72;;;24.59;35.46
74573;BME280;63071;51.526;-0.134;2022-11-15T00:53:49;99979.66;;;24.55;35.42
74573;BME280;63071;51.526;-0.134;2022-11-15T00:56:14;99970.50;;;24.53;35.01
74573;BME280;63071;51.526;-0.134;2022-11-15T00:58:39;99960.59;;;24.53;35.14
74573;BME280;63071;51.526;-0.134;2022-11-15T01:01:10;99952.88;;;24.59;35.59
74573;BME280;63071;51.526;-0.134;2022-11-15T01:03:37;99953.28;;;24.57;35.30
74573;BME280;63071;51.526;-0.134;2022-11-15T01:06:02;99951.00;;;24.56;35.22
74573;BME280;63071;51.526;-0.134;2022-11-15T01:08:28;99942.25;;;24.55;35.36
74573;BME280;63071;51.526;-0.134;2022-11-15T01:10:53;99934.22;;;24.55;35.30
74573;BME280;63071;51.526;-0.134;2022-11-15T01:13:19;99934.59;;;24.57;34.64
74573;BME280;63071;51.526;-0.134;2022-11-15T01:15:44;99928.56;;;24.46;34.90
74573;BME280;63071;51.526;-0.134;2022-11-15T01:18:10;99932.00;;;24.47;34.78
74573;BME280;63071;51.526;-0.134;2022-11-15T01:20:42;99922.06;;;24.47;34.98
74573;BME280;63071;51.526;-0.134;2022-11-15T01:23:07;99934.25;;;24.48;35.07
74573;BME280;63071;51.526;-0.134;2022-11-15T01:25:33;99927.03;;;24.45;34.46
74573;BME280;63071;51.526;-0.134;2022-11-15T01:27:58;99921.69;;;24.45;34.36
74573;BME280;63071;51.526;-0.134;2022-11-15T01:30:24;99903.09;;;24.38;34.53
74573;BME280;63071;51.526;-0.134;2022-11-15T01:32:49;99906.13;;;24.40;34.67
74573;BME280;63071;51.526;-0.134;2022-11-15T01:35:15;99902.34;;;24.37;34.92
74573;BME280;63071;51.526;-0.134;2022-11-15T01:37:40;99890.47;;;24.38;34.80
74573;BME280;63071;51.526;-0.134;2022-11-15T01:40:06;99893.50;;;24.40;34.68
74573;BME280;63071;51.526;-0.134;2022-11-15T01:42:32;99886.25;;;24.41;34.41
74573;BME280;63071;51.526;-0.134;2022-11-15T01:44:57;99884.00;;;24.39;34.74
74573;BME280;63071;51.526;-0.134;2022-11-15T01:47:38;99872.63;;;24.32;34.58
74573;BME280;63071;51.526;-0.134;2022-11-15T01:50:12;99875.56;;;24.41;34.55
74573;BME280;63071;51.526;-0.134;2022-11-15T01:52:40;99864.53;;;24.39;34.68
74573;BME280;63071;51.526;-0.134;2022-11-15T01:55:08;99873.00;;;24.34;34.67
74573;BME280;63071;51.526;-0.134;2022-11-15T01:57:35;99874.50;;;24.35;34.05
74573;BME280;63071;51.526;-0.134;2022-11-15T02:00:04;99858.53;;;24.31;34.39
74573;BME280;63071;51.526;-0.134;2022-11-15T02:02:31;99857.75;;;24.31;34.44
74573;BME280;63071;51.526;-0.134;2022-11-15T02:04:57;99855.50;;;24.29;34.16
74573;BME280;63071;51.526;-0.134;2022-11-15T02:07:23;99838.69;;;24.29;34.51
74573;BME280;63071;51.526;-0.134;2022-11-15T02:09:49;99842.94;;;24.26;34.64
74573;BME280;63071;51.526;-0.134;2022-11-15T02:12:19;99851.69;;;24.27;34.33
74573;BME280;63071;51.526;-0.134;2022-11-15T02:14:51;99843.69;;;24.27;34.06
74573;BME280;63071;51.526;-0.134;2022-11-15T02:26:07;99806.72;;;24.25;34.23
74573;BME280;63071;51.526;-0.134;2022-11-15T02:31:48;99808.25;;;24.23;34.06
74573;BME280;63071;51.526;-0.134;2022-11-15T02:37:07;99790.69;;;24.25;34.18
74573;BME280;63071;51.526;-0.134;2022-11-15T02:39:41;99789.22;;;24.20;34.21
74573;BME280;63071;51.526;-0.134;2022-11-15T02:42:24;99773.66;;;24.15;34.50
74573;BME280;63071;51.526;-0.134;2022-11-15T02:45:13;99774.03;;;24.14;34.42
74573;BME280;63071;51.526;-0.134;2022-11-15T02:47:45;99777.81;;;24.16;34.21
74573;BME280;63071;51.526;-0.134;2022-11-15T02:50:16;99770.97;;;24.15;34.73
74573;BME280;63071;51.526;-0.134;2022-11-15T02:52:45;99771.31;;;24.17;34.29
74573;BME280;63071;51.526;-0.134;2022-11-15T02:55:32;99771.69;;;24.19;34.45
74573;BME280;63071;51.526;-0.134;2022-11-15T02:58:25;99765.19;;;24.20;34.26
74573;BME280;63071;51.526;-0.134;2022-11-15T03:12:00;99719.19;;;24.09;34.41
74573;BME280;63071;51.526;-0.134;2022-11-15T03:14:37;99733.94;;;24.17;34.38
74573;BME280;63071;51.526;-0.134;2022-11-15T03:17:24;99723.66;;;24.16;34.21
74573;BME280;63071;51.526;-0.134;2022-11-15T03:19:54;99716.06;;;24.14;34.30
74573;BME280;63071;51.526;-0.134;2022-11-15T03:22:24;99719.53;;;24.11;34.17
74573;BME280;63071;51.526;-0.134;2022-11-15T03:25:00;99714.09;;;24.18;34.16
74573;BME280;63071;51.526;-0.134;2022-11-15T03:27:34;99704.28;;;24.12;34.28
74573;BME280;63071;51.526;-0.134;2022-11-15T03:30:05;99710.72;;;24.14;34.32
74573;BME280;63071;51.526;-0.134;2022-11-15T03:32:41;99703.56;;;24.08;34.50
74573;BME280;63071;51.526;-0.134;2022-11-15T03:35:14;99703.94;;;24.06;34.20
74573;BME280;63071;51.526;-0.134;2022-11-15T03:37:57;99697.47;;;24.07;34.38
74573;BME280;63071;51.526;-0.134;2022-11-15T03:40:34;99692.84;;;24.11;34.47
74573;BME280;63071;51.526;-0.134;2022-11-15T03:43:06;99691.75;;;24.09;34.60
74573;BME280;63071;51.526;-0.134;2022-11-15T03:45:55;99681.78;;;24.13;34.66
74573;BME280;63071;51.526;-0.134;2022-11-15T03:48:25;99687.16;;;24.09;34.80
74573;BME280;63071;51.526;-0.134;2022-11-15T03:50:52;99678.78;;;24.07;34.63
74573;BME280;63071;51.526;-0.134;2022-11-15T03:53:18;99677.56;;;24.12;34.39
74573;BME280;63071;51.526;-0.134;2022-11-15T03:55:43;99666.53;;;24.10;34.02
74573;BME280;63071;51.526;-0.134;2022-11-15T03:58:09;99682.56;;;24.10;34.67
74573;BME280;63071;51.526;-0.134;2022-11-15T04:00:34;99673.41;;;24.11;34.69
74573;BME280;63071;51.526;-0.134;2022-11-15T04:03:00;99667.28;;;24.10;34.45
74573;BME280;63071;51.526;-0.134;2022-11-15T04:05:25;99643.38;;;24.03;34.85
74573;BME280;63071;51.526;-0.134;2022-11-15T04:07:51;99662.72;;;24.11;34.58
74573;BME280;63071;51.526;-0.134;2022-11-15T04:10:16;99653.59;;;24.08;34.48
74573;BME280;63071;51.526;-0.134;2022-11-15T04:12:44;99659.63;;;24.12;34.70
74573;BME280;63071;51.526;-0.134;2022-11-15T04:15:21;99645.94;;;24.10;34.99
74573;BME280;63071;51.526;-0.134;2022-11-15T04:17:51;99642.13;;;24.11;34.73
74573;BME280;63071;51.526;-0.134;2022-11-15T04:23:12;99622.25;;;24.12;34.83
74573;BME280;63071;51.526;-0.134;2022-11-15T04:26:00;99624.53;;;24.14;34.91
74573;BME280;63071;51.526;-0.134;2022-11-15T04:28:27;99625.72;;;24.13;34.78
74573;BME280;63071;51.526;-0.134;2022-11-15T04:30:52;99623.78;;;24.13;34.87
74573;BME280;63071;51.526;-0.134;2022-11-15T04:33:18;99608.16;;;24.12;34.63
74573;BME280;63071;51.526;-0.134;2022-11-15T04:35:44;99609.25;;;24.14;34.96
74573;BME280;63071;51.526;-0.134;2022-11-15T04:38:30;99599.38;;;24.15;35.05
74573;BME280;63071;51.526;-0.134;2022-11-15T04:40:55;99597.84;;;24.14;34.81
74573;BME280;63071;51.526;-0.134;2022-11-15T04:43:21;99589.47;;;24.12;34.96
74573;BME280;63071;51.526;-0.134;2022-11-15T04:45:46;99574.63;;;24.11;35.39
74573;BME280;63071;51.526;-0.134;2022-11-15T04:48:12;99577.22;;;24.14;35.14
74573;BME280;63071;51.526;-0.134;2022-11-15T04:50:37;99572.25;;;24.16;35.06
74573;BME280;63071;51.526;-0.134;2022-11-15T04:53:02;99560.81;;;24.16;34.95
74573;BME280;63071;51.526;-0.134;2022-11-15T04:55:28;99563.09;;;24.17;35.01
74573;BME280;63071;51.526;-0.134;2022-11-15T04:57:58;99546.47;;;24.06;35.16
74573;BME280;63071;51.526;-0.134;2022-11-15T05:00:25;99562.75;;;24.15;35.01
74573;BME280;63071;51.526;-0.134;2022-11-15T05:02:51;99556.22;;;24.16;34.97
74573;BME280;63071;51.526;-0.134;2022-11-15T05:05:35;99552.06;;;24.15;35.14
74573;BME280;63071;51.526;-0.134;2022-11-15T05:08:01;99547.13;;;24.14;35.28
74573;BME280;63071;51.526;-0.134;2022-11-15T05:10:26;99539.81;;;24.18;35.26
74573;BME280;63071;51.526;-0.134;2022-11-15T05:12:52;99531.78;;;24.18;35.11
74573;BME280;63071;51.526;-0.134;2022-11-15T05:15:17;99524.97;;;24.17;35.18
74573;BME280;63071;51.526;-0.134;2022-11-15T05:17:42;99528.38;;;24.17;35.63
74573;BME280;63071;51.526;-0.134;2022-11-15T05:20:08;99518.50;;;24.14;35.37
74573;BME280;63071;51.526;-0.134;2022-11-15T05:22:34;99515.91;;;24.11;35.52
74573;BME280;63071;51.526;-0.134;2022-11-15T05:24:59;99507.06;;;24.14;35.10
74573;BME280;63071;51.526;-0.134;2022-11-15T05:27:25;99505.84;;;24.18;35.26
74573;BME280;63071;51.526;-0.134;2022-11-15T05:29:50;99488.28;;;24.21;35.28
74573;BME280;63071;51.526;-0.134;2022-11-15T05:32:17;99487.59;;;24.17;35.67
74573;BME280;63071;51.526;-0.134;2022-11-15T05:34:43;99492.94;;;24.17;35.48
74573;BME280;63071;51.526;-0.134;2022-11-15T05:37:09;99486.06;;;24.16;35.60
74573;BME280;63071;51.526;-0.134;2022-11-15T05:39:35;99479.59;;;24.17;35.76
74573;BME280;63071;51.526;-0.134;2022-11-15T05:42:12;99472.66;;;24.19;35.49
74573;BME280;63071;51.526;-0.134;2022-11-15T05:44:43;99478.09;;;24.12;35.29
74573;BME280;63071;51.526;-0.134;2022-11-15T05:47:17;99472.78;;;24.12;35.59
74573;BME280;63071;51.526;-0.134;2022-11-15T05:49:47;99464.41;;;24.10;35.59
74573;BME280;63071;51.526;-0.134;2022-11-15T05:52:17;99462.53;;;24.11;35.34
74573;BME280;63071;51.526;-0.134;2022-11-15T05:54:44;99455.59;;;24.13;35.59
74573;BME280;63071;51.526;-0.134;2022-11-15T05:57:09;99449.22;;;24.07;35.65
74573;BME280;63071;51.526;-0.134;2022-11-15T05:59:36;99455.72;;;24.06;36.08
74573;BME280;63071;51.526;-0.134;2022-11-15T06:02:01;99446.16;;;24.09;35.80
74573;BME280;63071;51.526;-0.134;2022-11-15T06:04:27;99440.09;;;24.05;36.02
74573;BME280;63071;51.526;-0.134;2022-11-15T06:06:52;99436.91;;;24.13;36.11
74573;BME280;63071;51.526;-0.134;2022-11-15T06:09:18;99436.97;;;24.10;36.18
74573;BME280;63071;51.526;-0.134;2022-11-15T06:11:43;99443.88;;;24.07;36.25
74573;BME280;63071;51.526;-0.134;2022-11-15T06:14:09;99436.97;;;24.10;36.23
74573;BME280;63071;51.526;-0.134;2022-11-15T06:16:34;99437.31;;;24.12;36.21
74573;BME280;63071;51.526;-0.134;2022-11-15T06:19:00;99429.72;;;24.10;36.31
74573;BME280;63071;51.526;-0.134;2022-11-15T06:21:26;99424.03;;;24.08;36.21
74573;BME280;63071;51.526;-0.134;2022-11-15T06:23:53;99419.31;;;24.16;36.11
74573;BME280;63071;51.526;-0.134;2022-11-15T06:26:19;99423.91;;;24.15;36.03
74573;BME280;63071;51.526;-0.134;2022-11-15T06:28:44;99425.50;;;24.13;36.08
74573;BME280;63071;51.526;-0.134;2022-11-15T06:31:10;99420.91;;;24.13;35.88
74573;BME280;63071;51.526;-0.134;2022-11-15T06:33:37;99418.63;;;24.12;35.95
74573;BME280;63071;51.526;-0.134;2022-11-15T06:36:04;99410.34;;;24.06;36.38
74573;BME280;63071;51.526;-0.134;2022-11-15T06:38:30;99417.75;;;24.18;36.31
74573;BME280;63071;51.526;-0.134;2022-11-15T06:41:08;99404.88;;;24.13;36.37
74573;BME280;63071;51.526;-0.134;2022-11-15T06:43:34;99406.13;;;24.09;36.23
74573;BME280;63071;51.526;-0.134;2022-11-15T06:46:01;99400.69;;;24.12;36.22
74573;BME280;63071;51.526;-0.134;2022-11-15T06:48:28;99392.63;;;24.16;35.88
74573;BME280;63071;51.526;-0.134;2022-11-15T06:50:57;99386.31;;;24.06;36.49
74573;BME280;63071;51.526;-0.134;2022-11-15T06:53:24;99398.81;;;24.13;36.52
74573;BME280;63071;51.526;-0.134;2022-11-15T06:55:50;99387.97;;;24.20;36.30
74573;BME280;63071;51.526;-0.134;2022-11-15T06:58:16;99381.22;;;24.15;36.40
74573;BME280;63071;51.526;-0.134;2022-11-15T07:00:41;99383.81;;;24.19;36.23
74573;BME280;63071;51.526;-0.134;2022-11-15T07:03:07;99375.88;;;24.15;36.27
74573;BME280;63071;51.526;-0.134;2022-11-15T07:05:34;99382.78;;;24.13;36.54
74573;BME280;63071;51.526;-0.134;2022-11-15T07:08:00;99363.41;;;24.09;36.80
74573;BME280;63071;51.526;-0.134;2022-11-15T07:10:26;99367.56;;;24.10;36.52
74573;BME280;63071;51.526;-0.134;2022-11-15T07:12:53;99362.19;;;24.13;36.41
74573;BME280;63071;51.526;-0.134;2022-11-15T07:15:20;99359.97;;;24.08;36.70
74573;BME280;63071;51.526;-0.134;2022-11-15T07:17:46;99360.75;;;24.09;36.85
74573;BME280;63071;51.526;-0.134;2022-11-15T07:20:13;99355.81;;;24.07;36.76
74573;BME280;63071;51.526;-0.134;2022-11-15T07:22:39;99344.78;;;24.05;36.75
74573;BME280;63071;51.526;-0.134;2022-11-15T07:25:05;99353.88;;;24.08;36.81
74573;BME280;63071;51.526;-0.134;2022-11-15T07:27:31;99354.63;;;24.08;37.06
74573;BME280;63071;51.526;-0.134;2022-11-15T07:29:56;99353.47;;;24.09;36.95
74573;BME280;63071;51.526;-0.134;2022-11-15T07:32:22;99345.81;;;24.11;37.09
74573;BME280;63071;51.526;-0.134;2022-11-15T07:34:47;99342.47;;;24.07;37.33
74573;BME280;63071;51.526;-0.134;2022-11-15T07:37:12;99343.59;;;24.06;37.14
74573;BME280;63071;51.526;-0.134;2022-11-15T07:39:38;99348.50;;;24.11;37.26
74573;BME280;63071;51.526;-0.134;2022-11-15T07:42:03;99334.09;;;24.05;37.30
74573;BME280;63071;51.526;-0.134;2022-11-15T07:44:48;99339.00;;;24.07;37.52
74573;BME280;63071;51.526;-0.134;2022-11-15T07:47:13;99335.25;;;24.04;37.45
74573;BME280;63071;51.526;-0.134;2022-11-15T07:49:39;99329.19;;;24.04;37.62
74573;BME280;63071;51.526;-0.134;2022-11-15T07:52:04;99330.59;;;24.08;37.85
74573;BME280;63071;51.526;-0.134;2022-11-15T07:54:30;99331.09;;;24.03;37.84
74573;BME280;63071;51.526;-0.134;2022-11-15T07:56:55;99330.25;;;24.06;37.67
74573;BME280;63071;51.526;-0.134;2022-11-15T07:59:20;99334.84;;;24.06;37.89
74573;BME280;63071;51.526;-0.134;2022-11-15T08:01:46;99314.25;;;24.06;37.70
74573;BME280;63071;51.526;-0.134;2022-11-15T08:04:11;99315.72;;;24.11;37.91
74573;BME280;63071;51.526;-0.134;2022-11-15T08:06:37;99307.75;;;24.07;38.07
74573;BME280;63071;51.526;-0.134;2022-11-15T08:09:03;99313.44;;;24.09;37.76
74573;BME280;63071;51.526;-0.134;2022-11-15T08:11:29;99302.44;;;24.07;38.15
74573;BME280;63071;51.526;-0.134;2022-11-15T08:13:54;99307.34;;;24.09;38.21
74573;BME280;63071;51.526;-0.134;2022-11-15T08:16:20;99295.56;;;24.06;38.20
74573;BME280;63071;51.526;-0.134;2022-11-15T08:18:45;99297.16;;;24.04;38.32
74573;BME280;63071;51.526;-0.134;2022-11-15T08:21:19;99290.63;;;24.05;38.45
74573;BME280;63071;51.526;-0.134;2022-11-15T08:23:45;99289.06;;;24.07;38.03
74573;BME280;63071;51.526;-0.134;2022-11-15T08:26:11;99291.41;;;24.05;38.02
74573;BME280;63071;51.526;-0.134;2022-11-15T08:28:36;99273.81;;;24.08;38.24
74573;BME280;63071;51.526;-0.134;2022-11-15T08:31:02;99276.47;;;24.08;38.11
74573;BME280;63071;51.526;-0.134;2022-11-15T08:33:29;99285.56;;;24.10;38.24
74573;BME280;63071;51.526;-0.134;2022-11-15T08:35:59;99281.41;;;24.09;38.34
74573;BME280;63071;51.526;-0.134;2022-11-15T08:38:25;99278.34;;;24.11;38.25
74573;BME280;63071;51.526;-0.134;2022-11-15T08:41:01;99267.56;;;24.14;38.38
74573;BME280;63071;51.526;-0.134;2022-11-15T08:43:27;99262.38;;;24.07;38.33
74573;BME280;63071;51.526;-0.134;2022-11-15T08:45:56;99262.38;;;24.07;38.17
74573;BME280;63071;51.526;-0.134;2022-11-15T08:48:21;99258.59;;;24.05;38.42
74573;BME280;63071;51.526;-0.134;2022-11-15T08:50:47;99252.53;;;24.04;38.49
74573;BME280;63071;51.526;-0.134;2022-11-15T08:53:12;99251.03;;;24.03;38.66
74573;BME280;63071;51.526;-0.134;2022-11-15T08:55:40;99231.03;;;24.11;38.56
74573;BME280;63071;51.526;-0.134;2022-11-15T08:58:06;99247.81;;;24.12;38.66
74573;BME280;63071;51.526;-0.134;2022-11-15T09:00:32;99238.03;;;24.05;38.54
74573;BME280;63071;51.526;-0.134;2022-11-15T09:02:58;99246.38;;;24.07;38.75
74573;BME280;63071;51.526;-0.134;2022-11-15T09:05:25;99237.69;;;24.03;39.28
74573;BME280;63071;51.526;-0.134;2022-11-15T09:07:54;99237.97;;;24.09;39.25
74573;BME280;63071;51.526;-0.134;2022-11-15T09:10:20;99221.50;;;24.10;39.18
74573;BME280;63071;51.526;-0.134;2022-11-15T09:12:46;99215.56;;;24.03;39.28
74573;BME280;63071;51.526;-0.134;2022-11-15T09:15:14;99219.69;;;24.07;39.02
74573;BME280;63071;51.526;-0.134;2022-11-15T09:17:41;99216.50;;;24.12;39.13
74573;BME280;63071;51.526;-0.134;2022-11-15T09:20:07;99213.78;;;24.16;39.19
74573;BME280;63071;51.526;-0.134;2022-11-15T09:22:33;99210.69;;;24.17;39.30
74573;BME280;63071;51.526;-0.134;2022-11-15T09:24:58;99208.09;;;24.14;39.04
74573;BME280;63071;51.526;-0.134;2022-11-15T09:27:28;99212.63;;;24.17;39.25
74573;BME280;63071;51.526;-0.134;2022-11-15T09:29:54;99207.28;;;24.17;39.24
74573;BME280;63071;51.526;-0.134;2022-11-15T09:32:20;99195.44;;;24.18;39.34
74573;BME280;63071;51.526;-0.134;2022-11-15T09:34:45;99196.94;;;24.19;39.42
74573;BME280;63071;51.526;-0.134;2022-11-15T09:37:11;99195.44;;;24.18;39.63
74573;BME280;63071;51.526;-0.134;2022-11-15T09:39:37;99181.34;;;24.17;39.28
74573;BME280;63071;51.526;-0.134;2022-11-15T09:45:22;99179.75;;;24.20;39.45
74573;BME280;63071;51.526;-0.134;2022-11-15T09:47:56;99166.25;;;24.27;39.38
74573;BME280;63071;51.526;-0.134;2022-11-15T09:50:36;99171.69;;;24.24;39.46
74573;BME280;63071;51.526;-0.134;2022-11-15T09:53:03;99156.31;;;24.28;39.59
74573;BME280;63071;51.526;-0.134;2022-11-15T09:55:44;99154.91;;;24.23;39.73
74573;BME280;63071;51.526;-0.134;2022-11-15T09:58:27;99151.00;;;24.28;39.66
74573;BME280;63071;51.526;-0.134;2022-11-15T10:00:57;99154.41;;;24.28;39.82
74573;BME280;63071;51.526;-0.134;2022-11-15T10:03:31;99152.06;;;24.30;39.90
74573;BME280;63071;51.526;-0.134;2022-11-15T10:06:02;99138.06;;;24.26;40.02
74573;BME280;63071;51.526;-0.134;2022-11-15T10:11:25;99123.97;;;24.26;40.45
74573;BME280;63071;51.526;-0.134;2022-11-15T10:13:55;99125.44;;;24.27;40.69
74573;BME280;63071;51.526;-0.134;2022-11-15T10:16:41;99125.72;;;24.32;40.32
74573;BME280;63071;51.526;-0.134;2022-11-15T10:24:13;99105.59;;;24.28;40.38
74573;BME280;63071;51.526;-0.134;2022-11-15T10:26:47;99099.09;;;24.29;40.70
74573;BME280;63071;51.526;-0.134;2022-11-15T10:29:18;99095.75;;;24.25;40.42
74573;BME280;63071;51.526;-0.134;2022-11-15T10:31:43;99093.75;;;24.29;40.58
74573;BME280;63071;51.526;-0.134;2022-11-15T10:34:20;99071.56;;;24.32;40.35
74573;BME280;63071;51.526;-0.134;2022-11-15T10:36:57;99080.56;;;24.38;40.31
74573;BME280;63071;51.526;-0.134;2022-11-15T10:39:23;99067.56;;;24.40;40.87
74573;BME280;63071;51.526;-0.134;2022-11-15T10:41:49;99061.88;;;24.38;40.34
74573;BME280;63071;51.526;-0.134;2022-11-15T10:44:19;99057.53;;;24.44;40.25
74573;BME280;63071;51.526;-0.134;2022-11-15T10:47:06;99052.53;;;24.46;40.77
74573;BME280;63071;51.526;-0.134;2022-11-15T10:49:34;99044.94;;;24.45;40.93
74573;BME280;63071;51.526;-0.134;2022-11-15T10:54:49;99039.50;;;24.48;40.66
74573;BME280;63071;51.526;-0.134;2022-11-15T10:57:16;99035.75;;;24.46;41.07
74573;BME280;63071;51.526;-0.134;2022-11-15T10:59:46;99023.56;;;24.45;41.12
74573;BME280;63071;51.526;-0.134;2022-11-15T11:02:29;99028.56;;;24.43;40.61
74573;BME280;63071;51.526;-0.134;2022-11-15T11:04:56;99003.47;;;24.40;41.28
74573;BME280;63071;51.526;-0.134;2022-11-15T11:07:25;99021.00;;;24.57;41.13
74573;BME280;63071;51.526;-0.134;2022-11-15T11:12:30;99011.22;;;24.51;40.72
74573;BME280;63071;51.526;-0.134;2022-11-15T11:14:58;98992.91;;;24.49;41.46
74573;BME280;63071;51.526;-0.134;2022-11-15T11:17:54;99000.19;;;24.49;41.11
74573;BME280;63071;51.526;-0.134;2022-11-15T11:20:43;98992.13;;;24.52;41.11
74573;BME280;63071;51.526;-0.134;2022-11-15T11:23:23;98984.84;;;24.53;41.33
74573;BME280;63071;51.526;-0.134;2022-11-15T11:29:14;98969.59;;;24.53;41.49
74573;BME280;63071;51.526;-0.134;2022-11-15T11:37:45;98948.47;;;24.43;42.00
74573;BME280;63071;51.526;-0.134;2022-11-15T11:40:35;98954.03;;;24.48;42.21
74573;BME280;63071;51.526;-0.134;2022-11-15T11:43:30;98943.97;;;24.56;43.25
74573;BME280;63071;51.526;-0.134;2022-11-15T11:48:42;98948.13;;;24.57;43.10
74573;BME280;63071;51.526;-0.134;2022-11-15T11:51:26;98934.75;;;24.57;43.17
74573;BME280;63071;51.526;-0.134;2022-11-15T11:57:21;98909.88;;;24.60;42.41
74573;BME280;63071;51.526;-0.134;2022-11-15T12:00:02;98913.97;;;24.65;42.36
74573;BME280;63071;51.526;-0.134;2022-11-15T12:02:44;98908.22;;;24.79;42.03
74573;BME280;63071;51.526;-0.134;2022-11-15T12:05:30;98900.75;;;24.74;42.31
74573;BME280;63071;51.526;-0.134;2022-11-15T12:08:12;98885.63;;;24.67;42.42
74573;BME280;63071;51.526;-0.134;2022-11-15T12:10:47;98872.06;;;24.62;42.58
74573;BME280;63071;51.526;-0.134;2022-11-15T12:13:21;98871.44;;;24.57;42.60
74573;BME280;63071;51.526;-0.134;2022-11-15T12:16:00;98871.31;;;24.61;42.32
74573;BME280;63071;51.526;-0.134;2022-11-15T12:18:28;98866.34;;;24.76;41.99
74573;BME280;63071;51.526;-0.134;2022-11-15T12:21:13;98865.47;;;24.79;41.88
74573;BME280;63071;51.526;-0.134;2022-11-15T12:23:55;98858.53;;;24.94;41.81
74573;BME280;63071;51.526;-0.134;2022-11-15T12:26:40;98845.47;;;24.84;42.41
74573;BME280;63071;51.526;-0.134;2022-11-15T12:29:16;98834.28;;;24.89;42.37
74573;BME280;63071;51.526;-0.134;2022-11-15T12:31:50;98834.06;;;24.83;42.16
74573;BME280;63071;51.526;-0.134;2022-11-15T12:36:46;98842.81;;;24.71;42.50
74573;BME280;63071;51.526;-0.134;2022-11-15T12:39:14;98837.56;;;24.67;42.25
74573;BME280;63071;51.526;-0.134;2022-11-15T12:41:42;98815.91;;;24.78;41.38
74573;BME280;63071;51.526;-0.134;2022-11-15T12:44:15;98815.91;;;24.78;41.94
74573;BME280;63071;51.526;-0.134;2022-11-15T12:59:55;98794.72;;;24.84;41.36
74573;BME280;63071;51.526;-0.134;2022-11-15T13:02:35;98769.50;;;24.85;41.06
74573;BME280;63071;51.526;-0.134;2022-11-15T13:22:49;98778.16;;;24.76;41.56
74573;BME280;63071;51.526;-0.134;2022-11-15T13:25:33;98781.69;;;24.73;41.12
74573;BME280;63071;51.526;-0.134;2022-11-15T13:30:36;98789.38;;;24.71;42.14
74573;BME280;63071;51.526;-0.134;2022-11-15T13:33:15;98786.94;;;24.64;42.72
74573;BME280;63071;51.526;-0.134;2022-11-15T13:35:46;98789.06;;;24.69;42.23
74573;BME280;63071;51.526;-0.134;2022-11-15T13:40:50;98791.53;;;24.76;42.06
74573;BME280;63071;51.526;-0.134;2022-11-15T13:48:37;98796.88;;;24.76;41.64
74573;BME280;63071;51.526;-0.134;2022-11-15T13:51:12;98795.16;;;24.82;41.45
74573;BME280;63071;51.526;-0.134;2022-11-15T13:53:45;98796.88;;;24.76;41.71
74573;BME280;63071;51.526;-0.134;2022-11-15T13:56:14;98803.28;;;24.66;42.06
74573;BME280;63071;51.526;-0.134;2022-11-15T13:58:40;98808.63;;;24.66;41.57
74573;BME280;63071;51.526;-0.134;2022-11-15T14:01:06;98802.41;;;24.69;42.01
74573;BME280;63071;51.526;-0.134;2022-11-15T14:03:49;98796.66;;;24.83;41.29
74573;BME280;63071;51.526;-0.134;2022-11-15T14:06:18;98792.16;;;24.80;41.68
74573;BME280;63071;51.526;-0.134;2022-11-15T14:11:26;98808.84;;;24.84;41.60
74573;BME280;63071;51.526;-0.134;2022-11-15T14:14:10;98798.16;;;24.84;42.03
74573;BME280;63071;51.526;-0.134;2022-11-15T14:16:45;98801.78;;;24.90;41.69
74573;BME280;63071;51.526;-0.134;2022-11-15T14:19:33;98809.03;;;24.90;41.53
74573;BME280;63071;51.526;-0.134;2022-11-15T14:22:13;98803.16;;;24.95;41.85
74573;BME280;63071;51.526;-0.134;2022-11-15T14:24:40;98812.47;;;24.90;41.21
74573;BME280;63071;51.526;-0.134;2022-11-15T14:27:35;98807.22;;;24.87;41.64
74573;BME280;63071;51.526;-0.134;2022-11-15T14:30:01;98807.56;;;24.89;41.26
74573;BME280;63071;51.526;-0.134;2022-11-15T14:32:30;98810.13;;;24.92;40.45
74573;BME280;63071;51.526;-0.134;2022-11-15T14:35:03;98811.28;;;24.91;40.48
74573;BME280;63071;51.526;-0.134;2022-11-15T14:37:32;98802.84;;;24.93;40.77
74573;BME280;63071;51.526;-0.134;2022-11-15T14:40:02;98800.81;;;24.97;40.22
74573;BME280;63071;51.526;-0.134;2022-11-15T14:42:29;98807.13;;;24.90;41.00
74573;BME280;63071;51.526;-0.134;2022-11-15T14:44:55;98804.22;;;24.97;40.67
74573;BME280;63071;51.526;-0.134;2022-11-15T14:47:20;98806.47;;;24.99;40.30
74573;BME280;63071;51.526;-0.134;2022-11-15T14:49:46;98802.44;;;24.94;40.45